Jacksonville, FL

2:39 PM EDT on July 29, 2016 (GMT -0400)
Jacksonville Naval Air Station | | Change Station

Elev 23 ft 30.23 °N, 81.67 °W | Updated 46 minutes ago

Scattered Clouds
Scattered Clouds
96 °F
Feels Like 101 °F
N
7
Wind Variable Wind from South

Today
High -- | Low -- °F
--% Chance of Precip.
Yesterday
High -- | Low -- °F
Precip. -- in
Pressure 30.02 in
Visibility 10.0 miles
Clouds Scattered Clouds 5000 ft
Heat Index 101 °F
Dew Point 68 °F
Humidity 40%
Rainfall 0.00 in
Snow Depth Not available.
6:43 AM 8:22 PM
Waning Crescent, 20% visible
METAR KNIP 291753Z COR 17006KT 10SM SCT050 36/20 A3003 RMK AO2 SLP164 T03560200 10361 20272 58010
Pressure 30.02 in
Visibility 10.0 miles
Clouds Scattered Clouds 5000 ft
Heat Index 101 °F
Dew Point 68 °F
Humidity 40%
Rainfall 0.00 in
Snow Depth Not available.
6:43 AM 8:22 PM
Waning Crescent, 20% visible
METAR KNIP 291753Z COR 17006KT 10SM SCT050 36/20 A3003 RMK AO2 SLP164 T03560200 10361 20272 58010

10-Day Weather Forecast

Almanac

Astronomy

Jul. 29, 2016 Rise Set
Actual Time
Civil Twilight
Nautical Twilight
Astronomical Twilight
Moon
Length of Visible Light
Length of Day
Tomorrow will be .
, % of the Moon is Illuminated

Today's Extremes

State Highs State Lows

Community

WunderPhotos

Upload Photos

1,928,393 photos uploaded!

WunderBlog® & News

Nearby

Air Quality

  Air Quality AQ Index Pollutant
Not available.

Snow Depth

Station Depth Elevation

Earthquake Activity

City Distance Mag. Time & Date
Minimum magnitude displayed is 2.5.

Coastal Water Temperatures

Place Temperature

Stations

Nearby Weather Stations

Station Location Temp. Windchill Dew Point Humidity Wind Precip. Elev Updated Type
                   

Watches & Warnings

There are currently no watches in effect.